Santa Fe, NM (87502)

10:24 PM MDT on October 25, 2014 (GMT -0600)
Southwest Santa Fe | Change Station
CLOSE
Current Station
Personal Weather Station
Location: Santa Fe, NM
Elevation: 6634 ft
Nearby Weather Stations

Elev 6634 ft 35.64 °N, 106.00 °W | Updated 27 seconds ago

Clear
Clear
54.9 °F
Feels Like 54.9 °F
N
0.0
Wind Variable Wind from ENE
Gusts 0.0 mph

Today
High -- | Low -- °F
--% Chance of Precip.
Yesterday
High -- | Low -- °F
Precip. -- in
7:19 AM 6:16 PM
Waxing Crescent, 6% visible
Pressure 30.04 in
Visibility 10.0 miles
Clouds Clear
Dew Point 33 °F
Humidity 43%
Rainfall 0.00 in
Snow Depth 0 in
UV 0 out of 12
Pollen 3.60 out of 12
Air Quality Not available.
Flu Activity Sporadic
METAR KSAF 260353Z AUTO 32005KT 10SM CLR 13/M02 A3023 RMK AO2 SLP171 T01331022

More Conditions Fewer Conditions

Pressure 30.04 in
Visibility 10.0 miles
Clouds Clear
Dew Point 33 °F
Humidity 43%
Rainfall 0.00 in
Snow Depth 0 in
UV 0 out of 12
Pollen 3.60 out of 12
Air Quality Not available.
Flu Activity Sporadic
METAR KSAF 260353Z AUTO 32005KT 10SM CLR 13/M02 A3023 RMK AO2 SLP171 T01331022

More Conditions Fewer Conditions

10-Day Weather Forecast

Almanac

Astronomy

Oct. 25, 2014 Rise Set
Actual Time 7:19 AM MDT 6:16 PM MDT
Civil Twilight 6:53 AM MDT 6:42 PM MDT
Nautical Twilight 6:23 AM MDT 7:11 PM MDT
Astronomical Twilight 5:53 AM MDT 7:41 PM MDT
Moon 8:58 AM MDT (10/25) 7:44 PM MDT (10/25)
Length of Visible Light 11h 48m
Length of Day
10h 56m
Tomorrow will be 2m 3s shorter.
Waxing Crescent, 6% of the Moon is Illuminated
Oct 26
Waxing Crescent
Oct 30
First Quarter
Nov 6
Full
Nov 14
Last Quarter
Nov 22
New

Yesterday's Extremes

State Highs State Lows

Community

WunderPhotos

Upload Photos

1,765,110 photos uploaded!

Nearby

Snow Depth

Station Depth Elevation
Elk Cabin 0 in 8210 ft
Wesner Springs 0 in 11120 ft
Quemazon 0 in 9500 ft
Gallegos Peak 0 in 9800 ft
Senorita Divide #2 0 in 8600 ft

Earthquake Activity

City Distance Mag. Time & Date
No recent earthquake activity has been reported nearby.
Minimum magnitude displayed is 2.5.

Coastal Water Temperatures

Place Temperature
No Stations Reporting

Nearby Weather Stations